createdAt,value
2024-03-24T00:00:28.679Z,18.20
2024-03-24T00:01:55.260Z,18.60
2024-03-24T00:03:04.335Z,17.00
2024-03-24T00:04:12.211Z,18.90
2024-03-24T00:05:18.868Z,20.20
2024-03-24T00:06:25.676Z,19.10
2024-03-24T00:07:32.010Z,16.20
2024-03-24T00:08:38.656Z,15.00
2024-03-24T00:09:45.391Z,17.10
2024-03-24T00:10:51.902Z,17.50
2024-03-24T00:11:57.804Z,16.40
2024-03-24T00:13:04.622Z,19.40
2024-03-24T00:14:12.065Z,17.40
2024-03-24T00:15:18.672Z,19.10
2024-03-24T00:16:25.101Z,18.20
2024-03-24T00:17:31.547Z,18.00
2024-03-24T00:18:37.826Z,16.20
2024-03-24T00:19:44.275Z,19.20
2024-03-24T00:20:50.414Z,16.70
2024-03-24T00:21:56.887Z,15.60
2024-03-24T00:23:03.329Z,21.70
2024-03-24T00:24:09.979Z,16.40
2024-03-24T00:25:17.057Z,15.60
2024-03-24T00:26:23.221Z,17.20
2024-03-24T00:27:30.317Z,18.10
2024-03-24T00:28:36.595Z,18.90
2024-03-24T00:29:43.057Z,18.00
2024-03-24T00:30:49.366Z,18.80
2024-03-24T00:31:55.902Z,18.90
2024-03-24T00:33:02.720Z,19.80
2024-03-24T00:34:08.831Z,18.90
2024-03-24T00:35:15.285Z,18.80
2024-03-24T00:36:21.770Z,16.80
2024-03-24T00:37:29.981Z,17.70
2024-03-24T00:38:36.143Z,18.10
2024-03-24T00:39:44.992Z,18.00
2024-03-24T00:40:52.287Z,19.80
2024-03-24T00:41:58.635Z,20.80
2024-03-24T00:43:05.120Z,16.80
2024-03-24T00:44:11.454Z,16.10
2024-03-24T00:45:18.806Z,18.50
2024-03-24T00:46:25.621Z,19.90
2024-03-24T00:47:32.266Z,18.30
2024-03-24T00:48:38.743Z,20.10
2024-03-24T00:49:45.187Z,20.80
2024-03-24T00:50:52.578Z,23.20
2024-03-24T00:51:59.115Z,20.40
2024-03-24T00:53:07.005Z,21.30
2024-03-24T00:54:13.507Z,17.70
2024-03-24T00:55:19.888Z,17.60
2024-03-24T00:56:26.512Z,19.10
2024-03-24T00:57:33.377Z,18.20
2024-03-24T00:58:41.864Z,23.20
2024-03-24T00:59:48.793Z,20.20
2024-03-24T01:00:56.318Z,21.10
2024-03-24T01:02:03.011Z,18.30
2024-03-24T01:03:09.937Z,20.20
2024-03-24T01:04:17.167Z,20.30
2024-03-24T01:05:23.951Z,19.80
2024-03-24T01:06:31.225Z,20.90
2024-03-24T01:07:37.525Z,17.20
2024-03-24T01:08:44.143Z,21.70
2024-03-24T01:09:56.170Z,19.10
2024-03-24T01:11:08.469Z,20.60
2024-03-24T01:12:14.595Z,20.70
2024-03-24T01:13:23.536Z,19.00
2024-03-24T01:14:32.791Z,21.20
2024-03-24T01:15:43.104Z,19.60
2024-03-24T01:16:49.372Z,19.50
2024-03-24T01:17:55.809Z,18.70
2024-03-24T01:19:02.172Z,20.70
2024-03-24T01:20:12.395Z,18.20
2024-03-24T01:21:21.204Z,18.00
2024-03-24T01:22:28.433Z,17.80
2024-03-24T01:23:34.990Z,17.30
2024-03-24T01:24:41.709Z,19.10
2024-03-24T01:25:48.170Z,17.40
2024-03-24T01:26:56.411Z,20.20
2024-03-24T01:28:02.658Z,17.60
2024-03-24T01:29:11.438Z,17.00
2024-03-24T01:30:17.722Z,20.20
2024-03-24T01:31:27.443Z,16.80
2024-03-24T01:32:33.947Z,19.30
2024-03-24T01:33:39.952Z,19.30
2024-03-24T01:34:46.083Z,20.80
2024-03-24T01:35:52.239Z,18.60
2024-03-24T01:36:58.410Z,19.50
2024-03-24T01:38:04.764Z,18.00
2024-03-24T01:39:11.068Z,20.20
2024-03-24T01:40:17.695Z,20.70
2024-03-24T01:41:23.829Z,17.10
2024-03-24T01:42:31.213Z,17.50
2024-03-24T01:43:37.446Z,18.00
2024-03-24T01:44:43.933Z,16.60
2024-03-24T01:45:50.450Z,16.30
2024-03-24T01:46:56.416Z,19.60
2024-03-24T01:48:03.419Z,16.80
2024-03-24T01:49:09.620Z,16.80
2024-03-24T01:50:16.713Z,19.50
2024-03-24T01:51:23.813Z,18.70
2024-03-24T01:52:30.639Z,19.10
2024-03-24T01:53:38.835Z,18.20
2024-03-24T01:54:46.066Z,19.80
2024-03-24T01:55:52.690Z,18.90
2024-03-24T01:57:01.164Z,16.20
2024-03-24T01:58:08.612Z,17.30
2024-03-24T01:59:14.818Z,15.20
2024-03-24T02:00:23.167Z,17.70
2024-03-24T02:01:29.853Z,15.30
2024-03-24T02:02:35.804Z,15.70
2024-03-24T02:03:43.988Z,17.30
2024-03-24T02:04:51.717Z,14.10
2024-03-24T02:05:59.650Z,15.90
2024-03-24T02:07:07.944Z,12.30
2024-03-24T02:08:14.674Z,13.00
2024-03-24T02:09:22.462Z,12.60
2024-03-24T02:10:30.277Z,13.10
2024-03-24T02:11:37.020Z,14.40
2024-03-24T02:12:43.457Z,13.30
2024-03-24T02:13:57.956Z,14.20
2024-03-24T02:15:03.963Z,13.50
2024-03-24T02:16:11.731Z,14.50
2024-03-24T02:17:20.432Z,12.50
2024-03-24T02:18:26.764Z,13.60
2024-03-24T02:19:32.782Z,14.40
2024-03-24T02:20:39.847Z,13.50
2024-03-24T02:21:45.828Z,12.40
2024-03-24T02:22:52.496Z,13.10
2024-03-24T02:23:59.361Z,14.20
2024-03-24T02:25:08.087Z,13.90
2024-03-24T02:26:14.209Z,14.60
2024-03-24T02:27:20.772Z,13.70
2024-03-24T02:28:27.527Z,14.50
2024-03-24T02:29:34.604Z,13.90
2024-03-24T02:30:40.660Z,14.10
2024-03-24T02:31:47.485Z,14.50
2024-03-24T02:32:53.745Z,15.10
2024-03-24T02:33:59.931Z,12.40
2024-03-24T02:35:08.884Z,13.30
2024-03-24T02:37:19.502Z,13.20
2024-03-24T02:38:26.141Z,12.10
2024-03-24T02:39:32.834Z,11.50
2024-03-24T02:40:39.389Z,13.80
2024-03-24T02:41:45.671Z,15.50
2024-03-24T02:42:52.199Z,13.80
2024-03-24T02:43:58.533Z,13.50
2024-03-24T02:45:08.553Z,14.30
2024-03-24T02:46:14.739Z,13.40
2024-03-24T02:47:21.019Z,16.70
2024-03-24T02:48:30.531Z,13.60
2024-03-24T02:49:37.064Z,15.80
2024-03-24T02:50:44.767Z,15.50
2024-03-24T02:51:51.339Z,18.00
2024-03-24T02:52:57.871Z,16.30
2024-03-24T02:54:04.583Z,17.60
2024-03-24T02:55:11.390Z,18.80
2024-03-24T02:56:17.669Z,21.80
2024-03-24T02:57:23.916Z,18.30
2024-03-24T02:58:30.702Z,22.90
2024-03-24T02:59:37.743Z,21.80
2024-03-24T03:00:46.158Z,23.80
2024-03-24T03:01:52.342Z,20.40
2024-03-24T03:02:58.567Z,21.40
2024-03-24T03:04:05.812Z,24.20
2024-03-24T03:05:12.533Z,22.40
2024-03-24T03:06:18.915Z,21.10
2024-03-24T03:07:25.536Z,20.00
2024-03-24T03:08:32.012Z,24.20
2024-03-24T03:09:38.735Z,21.10
2024-03-24T03:10:46.115Z,23.10
2024-03-24T03:11:52.402Z,21.70
2024-03-24T03:12:59.664Z,21.90
2024-03-24T03:14:05.813Z,21.20
2024-03-24T03:15:16.314Z,25.90
2024-03-24T03:16:22.715Z,22.10
2024-03-24T03:17:28.708Z,21.60
2024-03-24T03:18:35.503Z,22.50
2024-03-24T03:19:42.322Z,32.40
2024-03-24T03:20:49.150Z,20.90
2024-03-24T03:21:55.206Z,22.60
2024-03-24T03:23:01.963Z,22.30
2024-03-24T03:24:10.183Z,21.00
2024-03-24T03:25:16.466Z,20.50
2024-03-24T03:26:23.384Z,19.40
2024-03-24T03:27:30.107Z,19.70
2024-03-24T03:28:36.143Z,19.90
2024-03-24T03:29:42.856Z,22.40
2024-03-24T03:30:50.032Z,23.00
2024-03-24T03:31:56.184Z,24.10
2024-03-24T03:33:06.735Z,22.80
2024-03-24T03:34:15.133Z,22.80
2024-03-24T03:35:21.304Z,24.70
2024-03-24T03:36:27.338Z,21.30
2024-03-24T03:37:33.725Z,20.20
2024-03-24T03:38:40.095Z,22.90
2024-03-24T03:39:47.373Z,20.60
2024-03-24T03:40:53.365Z,22.90
2024-03-24T03:42:00.732Z,19.60
2024-03-24T03:43:08.450Z,21.90
2024-03-24T03:44:15.112Z,20.00
2024-03-24T03:45:25.017Z,20.20
2024-03-24T03:46:31.436Z,22.80
2024-03-24T03:47:38.355Z,20.20
2024-03-24T03:48:45.448Z,19.00
2024-03-24T03:49:54.264Z,23.50
2024-03-24T03:51:08.376Z,19.60
2024-03-24T03:52:14.598Z,21.20
2024-03-24T03:53:27.312Z,19.30
2024-03-24T03:54:35.449Z,25.60
2024-03-24T03:55:42.395Z,23.70
2024-03-24T03:56:50.854Z,22.80
2024-03-24T03:57:58.065Z,24.80
2024-03-24T03:59:04.680Z,21.10
2024-03-24T04:00:14.214Z,22.60
2024-03-24T04:01:21.070Z,25.00
2024-03-24T04:02:27.649Z,24.10
2024-03-24T04:03:36.864Z,23.20
2024-03-24T04:04:42.976Z,29.80
2024-03-24T04:05:49.375Z,21.50
2024-03-24T04:06:55.696Z,23.60
2024-03-24T04:08:01.854Z,26.60
2024-03-24T04:09:10.056Z,24.50
2024-03-24T04:10:19.299Z,23.00
2024-03-24T04:11:25.723Z,25.00
2024-03-24T04:12:32.753Z,22.10
2024-03-24T04:13:39.164Z,21.20
2024-03-24T04:14:46.729Z,19.90
2024-03-24T04:15:52.786Z,20.10
2024-03-24T04:16:59.690Z,22.10
2024-03-24T04:18:07.973Z,25.80
2024-03-24T04:19:14.277Z,23.70
2024-03-24T04:20:20.804Z,25.60
2024-03-24T04:21:27.250Z,23.50
2024-03-24T04:22:34.547Z,21.80
2024-03-24T04:23:40.724Z,23.40
2024-03-24T04:24:50.809Z,25.30
2024-03-24T04:25:59.040Z,25.00
2024-03-24T04:27:06.428Z,23.50
2024-03-24T04:28:13.810Z,22.80
2024-03-24T04:29:19.944Z,23.00
2024-03-24T04:30:26.348Z,22.50
2024-03-24T04:31:33.050Z,22.50
2024-03-24T04:32:39.756Z,22.50
2024-03-24T04:33:45.771Z,22.50
2024-03-24T04:34:53.827Z,23.40
2024-03-24T04:35:59.775Z,23.90
2024-03-24T04:37:06.681Z,24.60
2024-03-24T04:38:12.518Z,23.70
2024-03-24T04:39:20.381Z,22.50
2024-03-24T04:40:27.059Z,22.90
2024-03-24T04:41:33.331Z,24.00
2024-03-24T04:42:39.601Z,22.10
2024-03-24T04:43:46.239Z,24.50
2024-03-24T04:44:52.550Z,24.40
2024-03-24T04:46:00.385Z,23.10
2024-03-24T04:47:08.016Z,22.00
2024-03-24T04:48:14.003Z,23.50
2024-03-24T04:49:21.887Z,21.60
2024-03-24T04:50:29.894Z,23.70
2024-03-24T04:51:36.903Z,22.10
2024-03-24T04:52:45.464Z,20.80
2024-03-24T04:53:53.745Z,21.40
2024-03-24T04:55:00.447Z,23.60
2024-03-24T04:56:07.903Z,21.80
2024-03-24T04:57:13.982Z,22.50
2024-03-24T04:58:20.340Z,22.60
2024-03-24T04:59:26.256Z,21.30
2024-03-24T05:00:33.342Z,19.40
2024-03-24T05:01:39.833Z,20.30
2024-03-24T05:02:47.347Z,23.90
2024-03-24T05:03:54.343Z,21.50
2024-03-24T05:05:01.112Z,19.00
2024-03-24T05:06:08.507Z,21.20
2024-03-24T05:07:14.670Z,19.10
2024-03-24T05:08:20.738Z,17.30
2024-03-24T05:09:27.462Z,22.70
2024-03-24T05:10:40.837Z,20.80
2024-03-24T05:11:48.350Z,18.60
2024-03-24T05:12:54.966Z,20.50
2024-03-24T05:14:02.155Z,21.00
2024-03-24T05:15:11.307Z,20.10
2024-03-24T05:16:19.029Z,19.40
2024-03-24T05:17:25.430Z,20.40
2024-03-24T05:18:32.658Z,20.70
2024-03-24T05:19:38.990Z,26.00
2024-03-24T05:20:47.418Z,22.40
2024-03-24T05:21:53.768Z,20.50
2024-03-24T05:23:00.753Z,21.00
2024-03-24T05:24:08.544Z,22.40
2024-03-24T05:25:15.631Z,19.70
2024-03-24T05:26:21.971Z,21.10
2024-03-24T05:27:29.901Z,19.30
2024-03-24T05:28:46.494Z,20.90
2024-03-24T05:30:01.923Z,20.70
2024-03-24T05:31:08.868Z,22.80
2024-03-24T05:32:15.434Z,22.70
2024-03-24T05:33:21.786Z,19.10
2024-03-24T05:34:27.749Z,20.10
2024-03-24T05:35:33.937Z,20.80
2024-03-24T05:36:40.051Z,19.40
2024-03-24T05:37:46.348Z,23.70
2024-03-24T05:38:53.884Z,24.70
2024-03-24T05:40:00.653Z,24.70
2024-03-24T05:41:08.237Z,27.30
2024-03-24T05:42:14.941Z,19.50
2024-03-24T05:43:21.335Z,20.20
2024-03-24T05:44:27.473Z,20.10
2024-03-24T05:45:36.726Z,21.80
2024-03-24T05:46:43.367Z,21.10
2024-03-24T05:47:51.055Z,20.10
2024-03-24T05:48:57.881Z,21.20
2024-03-24T05:50:04.821Z,19.30
2024-03-24T05:51:11.279Z,21.60
2024-03-24T05:52:19.527Z,23.80
2024-03-24T05:53:27.686Z,24.20
2024-03-24T05:54:34.188Z,20.10
2024-03-24T05:55:40.670Z,22.50
2024-03-24T05:56:47.981Z,20.20
2024-03-24T05:57:54.403Z,22.70
2024-03-24T05:59:02.113Z,21.60
2024-03-24T06:00:13.581Z,19.60
2024-03-24T06:01:20.035Z,20.40
2024-03-24T06:02:26.579Z,22.90
2024-03-24T06:03:34.670Z,17.80
2024-03-24T06:04:41.008Z,21.20
2024-03-24T06:05:48.151Z,23.60
2024-03-24T06:06:54.830Z,22.00
2024-03-24T06:08:01.243Z,21.70
2024-03-24T06:09:07.895Z,20.10
2024-03-24T06:10:14.971Z,19.80
2024-03-24T06:11:21.017Z,22.10
2024-03-24T06:12:30.079Z,19.40
2024-03-24T06:13:36.626Z,22.50
2024-03-24T06:14:44.842Z,24.00
2024-03-24T06:15:50.998Z,20.00
2024-03-24T06:16:57.217Z,20.40
2024-03-24T06:18:09.598Z,18.50
2024-03-24T06:19:16.242Z,24.30
2024-03-24T06:20:22.765Z,22.40
2024-03-24T06:21:29.285Z,20.00
2024-03-24T06:22:35.454Z,19.10
2024-03-24T06:23:41.489Z,21.80
2024-03-24T06:24:48.333Z,25.40
2024-03-24T06:25:54.859Z,20.90
2024-03-24T06:27:00.974Z,22.40
2024-03-24T06:28:08.932Z,21.70
2024-03-24T06:29:15.606Z,21.90
2024-03-24T06:30:21.941Z,21.00
2024-03-24T06:31:28.439Z,25.00
2024-03-24T06:32:34.849Z,21.50
2024-03-24T06:33:42.184Z,22.70
2024-03-24T06:34:49.037Z,21.30
2024-03-24T06:35:55.708Z,23.80
2024-03-24T06:37:02.134Z,23.30
2024-03-24T06:38:09.415Z,21.50
2024-03-24T06:39:15.586Z,24.30
2024-03-24T06:40:24.441Z,22.00
2024-03-24T06:41:31.187Z,24.70
2024-03-24T06:42:44.440Z,24.20
2024-03-24T06:43:50.631Z,23.50
2024-03-24T06:44:58.935Z,24.00
2024-03-24T06:46:07.195Z,24.10
2024-03-24T06:47:13.407Z,25.20
2024-03-24T06:48:19.718Z,22.80
2024-03-24T06:49:26.277Z,24.20
2024-03-24T06:50:33.823Z,25.60
2024-03-24T06:51:40.556Z,23.30
2024-03-24T06:52:47.135Z,23.80
2024-03-24T06:53:53.848Z,25.30
2024-03-24T06:55:00.390Z,23.10
2024-03-24T06:56:10.365Z,27.10
2024-03-24T06:57:16.732Z,26.20
2024-03-24T06:58:25.008Z,25.50
2024-03-24T06:59:31.603Z,25.70
2024-03-24T07:00:37.679Z,22.20
2024-03-24T07:01:44.590Z,22.00
2024-03-24T07:02:51.580Z,22.60
2024-03-24T07:03:58.323Z,26.40
2024-03-24T07:05:05.702Z,23.80
2024-03-24T07:06:14.788Z,21.50
2024-03-24T07:07:20.879Z,23.00
2024-03-24T07:08:26.952Z,23.10
2024-03-24T07:09:34.801Z,22.70
2024-03-24T07:10:41.184Z,21.80
2024-03-24T07:11:47.228Z,23.00
2024-03-24T07:12:53.621Z,21.70
2024-03-24T07:14:00.081Z,23.00
2024-03-24T07:15:08.977Z,26.00
2024-03-24T07:16:15.411Z,22.20
2024-03-24T07:17:22.330Z,21.40
2024-03-24T07:18:29.154Z,22.20
2024-03-24T07:19:36.336Z,25.50
2024-03-24T07:20:42.274Z,22.40
2024-03-24T07:21:49.766Z,22.30
2024-03-24T07:22:56.900Z,23.20
2024-03-24T07:24:03.266Z,23.20
2024-03-24T07:25:11.456Z,22.00
2024-03-24T07:26:18.142Z,21.50
2024-03-24T07:27:24.803Z,19.70
2024-03-24T07:28:30.941Z,22.00
2024-03-24T07:29:37.901Z,23.70
2024-03-24T07:30:44.492Z,23.00
2024-03-24T07:31:50.514Z,22.80
2024-03-24T07:32:57.333Z,19.10
2024-03-24T07:34:05.659Z,20.30
2024-03-24T07:35:12.764Z,19.80
2024-03-24T07:36:18.909Z,18.20
2024-03-24T07:37:25.450Z,18.20
2024-03-24T07:38:36.047Z,18.70
2024-03-24T07:39:43.218Z,16.70
2024-03-24T07:40:49.604Z,18.40
2024-03-24T07:41:56.046Z,17.20
2024-03-24T07:43:02.595Z,18.80
2024-03-24T07:44:08.656Z,18.80
2024-03-24T07:45:17.031Z,17.80
2024-03-24T07:46:23.156Z,19.20
2024-03-24T07:47:29.916Z,19.30
2024-03-24T07:48:39.753Z,18.60
2024-03-24T07:49:48.052Z,21.30
2024-03-24T07:50:55.540Z,19.30
2024-03-24T07:52:02.119Z,19.40
2024-03-24T07:53:08.080Z,19.70
2024-03-24T07:54:16.391Z,18.30
2024-03-24T07:55:23.464Z,20.60
2024-03-24T07:56:29.819Z,22.60
2024-03-24T07:57:39.102Z,18.00
2024-03-24T07:58:45.438Z,20.90
2024-03-24T07:59:54.251Z,20.40
2024-03-24T08:01:02.186Z,20.30
2024-03-24T08:02:12.820Z,19.10
2024-03-24T08:03:20.128Z,17.80
2024-03-24T08:04:26.591Z,21.60
2024-03-24T08:05:34.684Z,17.60
2024-03-24T08:06:44.735Z,18.40
2024-03-24T08:07:53.283Z,19.50
2024-03-24T08:09:01.589Z,19.40
2024-03-24T08:10:09.030Z,20.20
2024-03-24T08:11:15.251Z,20.10
2024-03-24T08:12:21.708Z,18.60
2024-03-24T08:13:31.414Z,18.70
2024-03-24T08:14:42.901Z,19.30
2024-03-24T08:15:49.926Z,19.10
2024-03-24T08:16:59.453Z,17.20
2024-03-24T08:18:06.139Z,17.50
2024-03-24T08:19:12.675Z,16.70
2024-03-24T08:20:19.764Z,16.80
2024-03-24T08:21:25.950Z,16.20
2024-03-24T08:22:32.331Z,16.20
2024-03-24T08:23:39.794Z,14.10
2024-03-24T08:24:49.659Z,14.90
2024-03-24T08:25:55.902Z,14.50
2024-03-24T08:27:02.451Z,14.80
2024-03-24T08:28:11.629Z,16.90
2024-03-24T08:30:22.686Z,17.20
2024-03-24T08:31:29.214Z,18.10
2024-03-24T08:32:37.117Z,16.70
2024-03-24T08:33:43.802Z,18.80
2024-03-24T08:34:52.276Z,20.40
2024-03-24T08:35:58.736Z,17.80
2024-03-24T08:37:04.908Z,16.60
2024-03-24T08:38:11.380Z,18.50
2024-03-24T08:39:17.722Z,18.10
2024-03-24T08:40:28.710Z,17.10
2024-03-24T08:41:38.989Z,16.20
2024-03-24T08:42:45.056Z,16.80
2024-03-24T08:43:51.543Z,16.40
2024-03-24T08:44:57.730Z,13.70
2024-03-24T08:46:04.263Z,14.10
2024-03-24T08:47:10.811Z,17.10
2024-03-24T08:48:18.585Z,14.60
2024-03-24T08:49:27.717Z,15.20
2024-03-24T08:50:33.900Z,12.30
2024-03-24T08:51:40.504Z,13.10
2024-03-24T08:52:46.572Z,15.40
2024-03-24T08:53:52.755Z,14.70
2024-03-24T08:55:00.694Z,12.70
2024-03-24T08:56:08.599Z,13.90
2024-03-24T08:57:14.846Z,15.40
2024-03-24T08:58:21.688Z,11.20
2024-03-24T08:59:30.221Z,10.20
2024-03-24T09:00:36.831Z,9.80
2024-03-24T09:01:43.456Z,11.00
2024-03-24T09:02:49.912Z,10.80
2024-03-24T09:03:56.174Z,10.90
2024-03-24T09:05:02.765Z,9.70
2024-03-24T09:06:09.867Z,13.40
2024-03-24T09:07:16.108Z,11.60
2024-03-24T09:08:22.547Z,10.70
2024-03-24T09:09:28.965Z,7.90
2024-03-24T09:10:35.639Z,6.50
2024-03-24T09:11:42.109Z,8.50
2024-03-24T09:12:49.322Z,8.80
2024-03-24T09:13:55.298Z,8.70
2024-03-24T09:15:01.487Z,10.00
2024-03-24T09:16:09.861Z,8.20
2024-03-24T09:17:16.497Z,9.10
2024-03-24T09:18:22.719Z,9.80
2024-03-24T09:19:29.808Z,10.80
2024-03-24T09:20:37.851Z,8.10
2024-03-24T09:21:44.059Z,9.40
2024-03-24T09:22:50.243Z,8.60
2024-03-24T09:23:56.962Z,8.90
2024-03-24T09:25:04.712Z,9.90
2024-03-24T09:26:11.125Z,12.20
2024-03-24T09:27:17.915Z,8.30
2024-03-24T09:28:24.166Z,9.90
2024-03-24T09:29:30.730Z,9.30
2024-03-24T09:30:37.128Z,12.20
2024-03-24T09:31:43.570Z,9.90
2024-03-24T09:32:50.412Z,8.70
2024-03-24T09:33:57.132Z,8.70
2024-03-24T09:35:13.052Z,10.00
2024-03-24T09:36:19.952Z,10.70
2024-03-24T09:37:28.412Z,11.70
2024-03-24T09:38:34.771Z,10.50
2024-03-24T09:39:42.905Z,9.50
2024-03-24T09:40:52.148Z,9.60
2024-03-24T09:42:01.223Z,9.90
2024-03-24T09:43:08.003Z,11.00
2024-03-24T09:44:15.604Z,10.60
2024-03-24T09:45:26.677Z,9.50
2024-03-24T09:46:35.768Z,10.10
2024-03-24T09:48:47.602Z,9.20
2024-03-24T09:49:59.792Z,10.60
2024-03-24T09:51:09.437Z,10.60
2024-03-24T09:52:23.565Z,10.30
2024-03-24T09:53:32.090Z,11.50
2024-03-24T09:54:38.910Z,11.00
2024-03-24T09:55:50.097Z,10.20
2024-03-24T09:56:57.321Z,11.50
2024-03-24T09:58:10.713Z,12.90
2024-03-24T09:59:19.306Z,13.50
2024-03-24T10:00:30.294Z,12.30
2024-03-24T10:01:40.232Z,12.60
2024-03-24T10:02:47.570Z,13.40
2024-03-24T10:03:54.027Z,13.50
2024-03-24T10:05:05.293Z,13.30
2024-03-24T10:06:13.613Z,13.00
2024-03-24T10:07:20.376Z,14.60
2024-03-24T10:08:36.282Z,12.50
2024-03-24T10:09:42.308Z,11.00
2024-03-24T10:10:49.713Z,12.70
2024-03-24T10:11:55.963Z,12.40
2024-03-24T10:13:05.422Z,11.10
2024-03-24T10:14:11.975Z,12.00
2024-03-24T10:15:23.971Z,10.50
2024-03-24T10:16:32.096Z,11.00
2024-03-24T10:17:38.943Z,10.90
2024-03-24T10:18:45.131Z,10.80
2024-03-24T10:19:52.856Z,8.80
2024-03-24T10:20:59.453Z,12.10
2024-03-24T10:22:06.670Z,9.40
2024-03-24T10:23:15.119Z,11.30
2024-03-24T10:24:23.477Z,9.60
2024-03-24T10:25:31.977Z,9.80
2024-03-24T10:26:38.730Z,10.20
2024-03-24T10:27:46.790Z,9.30
2024-03-24T10:28:53.728Z,8.50
2024-03-24T10:30:00.201Z,9.40
2024-03-24T10:31:09.817Z,9.10
2024-03-24T10:32:26.914Z,9.80
2024-03-24T10:33:45.990Z,9.70
2024-03-24T10:34:52.275Z,8.90
2024-03-24T10:36:01.865Z,11.30
2024-03-24T10:37:11.687Z,11.10
2024-03-24T10:38:19.690Z,8.70
2024-03-24T10:39:26.349Z,9.20
2024-03-24T10:40:34.425Z,8.90
2024-03-24T10:41:44.921Z,10.00
2024-03-24T10:42:54.826Z,9.30
2024-03-24T10:44:04.163Z,9.60
2024-03-24T10:45:16.358Z,8.90
2024-03-24T10:46:23.763Z,9.60
2024-03-24T10:47:37.333Z,9.00
2024-03-24T10:48:47.918Z,9.20
2024-03-24T10:49:59.732Z,9.70
2024-03-24T10:51:11.585Z,9.50
2024-03-24T10:52:22.744Z,8.90
2024-03-24T10:53:32.715Z,10.60
2024-03-24T10:54:42.432Z,13.60
2024-03-24T10:55:49.711Z,9.90
2024-03-24T10:56:56.571Z,9.50
2024-03-24T10:58:04.391Z,10.50
2024-03-24T10:59:12.818Z,9.90
2024-03-24T11:00:29.894Z,10.10
2024-03-24T11:01:37.414Z,10.00
2024-03-24T11:02:44.464Z,11.80
2024-03-24T11:03:55.626Z,10.30
2024-03-24T11:05:04.431Z,9.80
2024-03-24T11:06:15.573Z,9.30
2024-03-24T11:07:23.451Z,11.20
2024-03-24T11:08:29.689Z,11.30
2024-03-24T11:09:36.210Z,10.40
2024-03-24T11:10:45.494Z,10.10
2024-03-24T11:11:51.953Z,10.30
2024-03-24T11:12:59.735Z,11.60
2024-03-24T11:14:09.202Z,10.70
2024-03-24T11:15:20.283Z,10.70
2024-03-24T11:16:29.370Z,11.80
2024-03-24T11:17:37.272Z,11.50
2024-03-24T11:18:43.556Z,11.40
2024-03-24T11:19:53.873Z,11.10
2024-03-24T11:21:02.579Z,11.40
2024-03-24T11:22:11.505Z,9.90
2024-03-24T11:23:21.589Z,8.90
2024-03-24T11:24:31.615Z,8.90
2024-03-24T11:25:41.290Z,8.40
2024-03-24T11:26:52.633Z,9.80
2024-03-24T11:27:58.873Z,9.60
2024-03-24T11:29:05.590Z,9.20
2024-03-24T11:30:14.750Z,8.10
2024-03-24T11:31:36.647Z,6.90
2024-03-24T11:32:56.720Z,5.80
2024-03-24T11:34:05.061Z,8.10
2024-03-24T11:35:13.294Z,5.30
2024-03-24T11:36:25.125Z,5.20
2024-03-24T11:37:32.679Z,7.10
2024-03-24T11:38:40.564Z,5.60
2024-03-24T11:39:47.068Z,6.20
2024-03-24T11:40:54.368Z,7.30
2024-03-24T11:42:13.770Z,6.40
2024-03-24T11:43:24.271Z,4.40
2024-03-24T11:44:33.930Z,4.50
2024-03-24T11:45:44.335Z,3.80
2024-03-24T11:47:05.504Z,5.80
2024-03-24T11:48:33.118Z,6.70
2024-03-24T11:50:56.484Z,4.40
2024-03-24T11:52:04.284Z,6.10
2024-03-24T11:53:11.532Z,5.60
2024-03-24T11:54:18.947Z,4.80
2024-03-24T11:55:29.221Z,4.00
2024-03-24T11:56:37.307Z,5.90
2024-03-24T11:57:44.111Z,3.80
2024-03-24T11:58:54.813Z,6.70
2024-03-24T12:00:03.015Z,6.70
2024-03-24T12:01:11.266Z,5.50
2024-03-24T12:02:17.494Z,4.40
2024-03-24T12:03:24.959Z,4.20
2024-03-24T12:04:31.442Z,4.40
2024-03-24T12:05:37.887Z,5.30
2024-03-24T12:06:46.504Z,3.80
2024-03-24T12:07:54.503Z,4.50
2024-03-24T12:09:02.063Z,4.60
2024-03-24T12:10:10.994Z,3.40
2024-03-24T12:12:26.143Z,5.40
2024-03-24T12:13:33.058Z,3.60
2024-03-24T12:14:39.122Z,5.50
2024-03-24T12:15:47.949Z,3.20
2024-03-24T12:17:11.433Z,6.00
2024-03-24T12:18:20.207Z,5.90
2024-03-24T12:19:26.490Z,5.40
2024-03-24T12:20:32.753Z,6.60
2024-03-24T12:21:40.203Z,3.80
2024-03-24T12:22:46.972Z,4.10
2024-03-24T12:23:53.706Z,4.20
2024-03-24T12:25:02.298Z,4.10
2024-03-24T12:26:08.583Z,4.90
2024-03-24T12:27:17.180Z,4.20
2024-03-24T12:28:23.344Z,5.40
2024-03-24T12:29:31.624Z,3.10
2024-03-24T12:30:38.991Z,6.70
2024-03-24T12:31:48.635Z,3.80
2024-03-24T12:32:57.821Z,4.00
2024-03-24T12:34:04.193Z,3.10
2024-03-24T12:35:11.561Z,3.50
2024-03-24T12:36:18.094Z,3.50
2024-03-24T12:37:24.933Z,4.20
2024-03-24T12:38:32.198Z,4.10
2024-03-24T12:39:38.900Z,4.30
2024-03-24T12:40:55.321Z,4.50
2024-03-24T12:42:15.120Z,5.40
2024-03-24T12:43:25.580Z,3.60
2024-03-24T12:44:34.355Z,4.60
2024-03-24T12:45:53.748Z,5.00
2024-03-24T12:47:12.610Z,3.30
2024-03-24T12:48:20.339Z,4.20
2024-03-24T12:49:51.923Z,4.20
2024-03-24T12:51:01.605Z,3.10
2024-03-24T12:52:10.765Z,6.60
2024-03-24T12:53:35.468Z,5.20
2024-03-24T12:54:46.770Z,5.30
2024-03-24T12:56:00.491Z,4.60
2024-03-24T12:57:08.991Z,3.20
2024-03-24T12:58:17.175Z,4.70
2024-03-24T12:59:23.292Z,3.80
2024-03-24T13:00:31.552Z,4.30
2024-03-24T13:01:39.713Z,4.60
2024-03-24T13:02:46.499Z,5.50
2024-03-24T13:03:53.522Z,3.50
2024-03-24T13:04:59.525Z,5.20
2024-03-24T13:06:11.401Z,3.30
2024-03-24T13:07:18.553Z,4.60
2024-03-24T13:08:25.778Z,3.00
2024-03-24T13:09:32.944Z,3.50
2024-03-24T13:10:39.292Z,4.00
2024-03-24T13:11:45.437Z,3.70
2024-03-24T13:12:52.691Z,4.90
2024-03-24T13:13:59.358Z,3.40
2024-03-24T13:15:08.595Z,2.70
2024-03-24T13:16:20.778Z,3.50
2024-03-24T13:17:32.797Z,4.10
2024-03-24T13:18:45.405Z,3.20
2024-03-24T13:19:56.477Z,2.80
2024-03-24T13:21:08.064Z,3.80
2024-03-24T13:22:14.826Z,6.00
2024-03-24T13:23:25.057Z,5.00
2024-03-24T13:24:36.750Z,3.60
2024-03-24T13:25:47.325Z,3.50
2024-03-24T13:26:59.330Z,3.80
2024-03-24T13:28:09.059Z,4.00
2024-03-24T13:29:16.125Z,3.20
2024-03-24T13:30:22.442Z,5.80
2024-03-24T13:31:29.546Z,5.00
2024-03-24T13:32:35.514Z,3.30
2024-03-24T13:33:41.635Z,3.10
2024-03-24T13:34:49.788Z,3.90
2024-03-24T13:35:58.055Z,3.90
2024-03-24T13:37:14.924Z,3.00
2024-03-24T13:38:34.956Z,3.80
2024-03-24T13:39:55.621Z,4.30
2024-03-24T13:41:18.024Z,4.50
2024-03-24T13:42:37.188Z,2.60
2024-03-24T13:44:00.150Z,2.00
2024-03-24T13:45:15.548Z,2.70
2024-03-24T13:46:24.568Z,3.90
2024-03-24T13:47:36.281Z,2.90
2024-03-24T13:48:43.520Z,2.70
2024-03-24T13:49:49.852Z,6.20
2024-03-24T13:50:57.391Z,1.30
2024-03-24T13:52:08.292Z,2.00
2024-03-24T13:53:17.746Z,2.50
2024-03-24T13:54:25.595Z,1.70
2024-03-24T13:55:32.973Z,1.60
2024-03-24T13:56:39.312Z,3.30
2024-03-24T13:57:47.029Z,2.00
2024-03-24T13:58:53.144Z,2.60
2024-03-24T13:59:59.411Z,2.60
2024-03-24T14:01:07.097Z,2.20
2024-03-24T14:02:16.691Z,3.40
2024-03-24T14:03:22.986Z,3.40
2024-03-24T14:04:29.692Z,1.90
2024-03-24T14:05:36.398Z,1.90
2024-03-24T14:06:43.109Z,2.50
2024-03-24T14:07:49.692Z,1.90
2024-03-24T14:08:56.469Z,1.90
2024-03-24T14:10:06.174Z,1.80
2024-03-24T14:11:12.804Z,2.20
2024-03-24T14:12:23.951Z,2.20
2024-03-24T14:13:53.216Z,2.10
2024-03-24T14:15:10.146Z,2.40
2024-03-24T14:16:29.951Z,3.10
2024-03-24T14:17:50.519Z,4.80
2024-03-24T14:19:08.690Z,2.30
2024-03-24T14:20:16.591Z,1.40
2024-03-24T14:21:28.626Z,2.00
2024-03-24T14:22:41.598Z,3.00
2024-03-24T14:23:56.259Z,1.90
2024-03-24T14:25:09.697Z,2.10
2024-03-24T14:26:15.967Z,2.60
2024-03-24T14:27:22.545Z,1.80
2024-03-24T14:28:29.658Z,2.10
2024-03-24T14:29:35.747Z,1.40
2024-03-24T14:30:44.411Z,1.30
2024-03-24T14:31:53.312Z,1.80
2024-03-24T14:33:00.615Z,2.30
2024-03-24T14:34:06.899Z,2.70
2024-03-24T14:35:14.220Z,2.30
2024-03-24T14:36:48.384Z,1.80
2024-03-24T14:38:06.911Z,2.60
2024-03-24T14:39:23.913Z,1.70
2024-03-24T14:40:51.798Z,2.50
2024-03-24T14:42:08.635Z,1.80
2024-03-24T14:43:28.283Z,1.60
2024-03-24T14:44:50.910Z,1.80
2024-03-24T14:46:15.469Z,1.60
2024-03-24T14:47:38.112Z,1.30
2024-03-24T14:48:44.749Z,1.90
2024-03-24T14:49:51.044Z,1.80
2024-03-24T14:50:58.901Z,1.30
2024-03-24T14:52:07.995Z,1.50
2024-03-24T14:53:15.410Z,3.90